Time;durP1;ratioP1;P1;durP2;ratioP2;P2;SDS_P1;SDS_P2;PMS_P1;PMS_P2;Temp;Humidity;BMP_temperature;BMP_pressure;BME280_temperature;BME280_humidity;BME280_pressure;Samples;Min_cycle;Max_cycle;Signal;HPM_P1;HPM_P2
2022/08/28 00:02:23;;;;;;;21.80;6.55;;;;;;;;;;4938606;29;20035;-76
2022/08/28 00:04:49;;;;;;;11.73;5.70;;;;;;;;;;4955612;29;20030;-76
2022/08/28 00:07:15;;;;;;;11.35;6.25;;;;;;;;;;4955359;28;20074;-76
2022/08/28 00:09:41;;;;;;;16.10;5.97;;;;;;;;;;4938439;29;20020;-76
2022/08/28 00:12:07;;;;;;;14.32;6.22;;;;;;;;;;4955846;29;20434;-76
2022/08/28 00:14:33;;;;;;;15.13;5.50;;;;;;;;;;4955287;29;20077;-76
2022/08/28 00:16:59;;;;;;;17.63;6.95;;;;;;;;;;4955591;29;20066;-75
2022/08/28 00:19:25;;;;;;;15.02;6.72;;;;;;;;;;4934366;28;20070;-75
2022/08/28 00:21:52;;;;;;;21.27;6.93;;;;;;;;;;4934945;29;20400;-75
2022/08/28 00:24:18;;;;;;;18.15;6.97;;;;;;;;;;4936299;29;20032;-75
2022/08/28 00:29:29;;;;;;;13.98;6.57;;;;;;;;;;4934594;29;20035;-75
2022/08/28 00:31:55;;;;;;;16.83;7.03;;;;;;;;;;4942050;29;20086;-75
2022/08/28 00:34:21;;;;;;;13.82;6.60;;;;;;;;;;4955098;29;20146;-75
2022/08/28 00:36:47;;;;;;;22.52;6.80;;;;;;;;;;4954915;29;20106;-76
2022/08/28 00:39:13;;;;;;;12.73;6.72;;;;;;;;;;4954880;28;20195;-75
2022/08/28 00:41:40;;;;;;;17.23;6.43;;;;;;;;;;4954847;29;20027;-75
2022/08/28 00:44:16;;;;;;;22.45;6.85;;;;;;;;;;4955235;29;20517;-78
2022/08/28 00:46:45;;;;;;;12.07;5.95;;;;;;;;;;4954630;29;20031;-75
2022/08/28 00:49:11;;;;;;;12.40;6.65;;;;;;;;;;4935581;29;20035;-76
2022/08/28 00:54:26;;;;;;;17.92;6.63;;;;;;;;;;4953919;28;20552;-75
2022/08/28 00:56:54;;;;;;;21.40;7.07;;;;;;;;;;4954718;29;20027;-78
2022/08/28 00:59:23;;;;;;;15.70;6.60;;;;;;;;;;4954772;28;20059;-76
2022/08/28 01:01:55;;;;;;;17.98;6.85;;;;;;;;;;4954774;29;20031;-77
2022/08/28 01:04:22;;;;;;;16.15;6.93;;;;;;;;;;4954707;29;20036;-76
2022/08/28 01:06:53;;;;;;;13.07;5.82;;;;;;;;;;4954242;29;20074;-75
2022/08/28 01:09:21;;;;;;;15.25;6.28;;;;;;;;;;4951949;28;20050;-75
2022/08/28 01:11:48;;;;;;;9.95;5.85;;;;;;;;;;4953877;28;20019;-75
2022/08/28 01:14:17;;;;;;;11.75;6.05;;;;;;;;;;4954413;29;20035;-76
2022/08/28 01:16:45;;;;;;;11.40;5.97;;;;;;;;;;4954564;29;20028;-76
2022/08/28 01:19:22;;;;;;;12.45;6.90;;;;;;;;;;4954238;28;20039;-75
2022/08/28 01:22:01;;;;;;;21.02;6.68;;;;;;;;;;4954208;29;20453;-77
2022/08/28 01:24:28;;;;;;;10.88;6.07;;;;;;;;;;4937223;29;20367;-74
2022/08/28 01:26:54;;;;;;;15.73;6.40;;;;;;;;;;4954319;29;20185;-80
2022/08/28 01:29:20;;;;;;;18.50;6.63;;;;;;;;;;4954382;28;20130;-78
2022/08/28 01:31:47;;;;;;;14.85;7.10;;;;;;;;;;4953895;29;20047;-77
2022/08/28 01:34:13;;;;;;;12.93;6.25;;;;;;;;;;4954300;29;20035;-78
2022/08/28 01:36:41;;;;;;;19.40;6.75;;;;;;;;;;4954044;29;20070;-79
2022/08/28 01:39:19;;;;;;;20.85;7.30;;;;;;;;;;4953943;28;20437;-78
2022/08/28 01:41:50;;;;;;;13.00;6.38;;;;;;;;;;4954133;29;20046;-76
2022/08/28 01:44:21;;;;;;;16.02;6.80;;;;;;;;;;4953805;29;20131;-77
2022/08/28 01:46:47;;;;;;;16.52;6.60;;;;;;;;;;4953783;29;20042;-77
2022/08/28 01:49:13;;;;;;;14.95;6.35;;;;;;;;;;4954233;28;20418;-79
2022/08/28 01:51:40;;;;;;;15.38;6.45;;;;;;;;;;4954082;29;20035;-78
2022/08/28 01:54:07;;;;;;;10.02;5.88;;;;;;;;;;4953885;29;20110;-78
2022/08/28 01:56:33;;;;;;;15.88;7.05;;;;;;;;;;4954063;29;20035;-78
2022/08/28 01:59:05;;;;;;;16.70;6.30;;;;;;;;;;4953398;28;20033;-78
2022/08/28 02:01:32;;;;;;;15.10;7.30;;;;;;;;;;4953493;29;20075;-78
2022/08/28 02:03:59;;;;;;;20.40;7.28;;;;;;;;;;4953715;29;20027;-76
2022/08/28 02:06:25;;;;;;;16.85;6.80;;;;;;;;;;4952930;28;20035;-77
2022/08/28 02:08:54;;;;;;;14.82;6.25;;;;;;;;;;4936367;29;20028;-78
2022/08/28 02:11:24;;;;;;;21.25;7.38;;;;;;;;;;4953611;29;20058;-79
2022/08/28 02:13:52;;;;;;;11.52;6.18;;;;;;;;;;4953539;29;20035;-78
2022/08/28 02:16:19;;;;;;;11.73;5.82;;;;;;;;;;4953666;29;20038;-78
2022/08/28 02:18:45;;;;;;;18.48;6.78;;;;;;;;;;4953556;28;20027;-75
2022/08/28 02:21:11;;;;;;;11.60;6.05;;;;;;;;;;4953751;29;20028;-78
2022/08/28 02:23:40;;;;;;;11.80;6.25;;;;;;;;;;4953228;29;20042;-78
2022/08/28 02:26:06;;;;;;;15.25;6.30;;;;;;;;;;4953471;28;20047;-76
2022/08/28 02:28:32;;;;;;;18.40;6.45;;;;;;;;;;4953806;29;20027;-78
2022/08/28 02:30:58;;;;;;;15.27;5.55;;;;;;;;;;4953086;29;20083;-77
2022/08/28 02:33:38;;;;;;;10.07;6.13;;;;;;;;;;4953565;29;20122;-77
2022/08/28 02:36:08;;;;;;;12.15;5.78;;;;;;;;;;4953072;29;20058;-77
2022/08/28 02:38:35;;;;;;;12.63;6.10;;;;;;;;;;4953310;29;20051;-75
2022/08/28 02:41:01;;;;;;;15.38;5.90;;;;;;;;;;4953431;29;20034;-77
2022/08/28 02:43:27;;;;;;;12.90;6.25;;;;;;;;;;4953580;29;20470;-75
2022/08/28 02:45:53;;;;;;;13.88;6.47;;;;;;;;;;4953647;29;20127;-77
2022/08/28 02:48:19;;;;;;;13.82;5.90;;;;;;;;;;4953287;28;20031;-77
2022/08/28 02:50:45;;;;;;;18.83;6.85;;;;;;;;;;4953232;29;20465;-79
2022/08/28 02:53:12;;;;;;;11.93;6.38;;;;;;;;;;4935930;29;20114;-78
2022/08/28 02:55:38;;;;;;;13.10;6.03;;;;;;;;;;4953283;29;20028;-75
2022/08/28 02:58:05;;;;;;;13.48;6.18;;;;;;;;;;4953295;28;20035;-80
2022/08/28 03:00:31;;;;;;;14.55;5.72;;;;;;;;;;4953168;29;20035;-76
2022/08/28 03:02:57;;;;;;;12.20;6.38;;;;;;;;;;4953275;29;20099;-75
2022/08/28 03:05:24;;;;;;;15.52;6.07;;;;;;;;;;4953215;29;20038;-78
2022/08/28 03:07:55;;;;;;;15.68;5.78;;;;;;;;;;4953022;28;20042;-79
2022/08/28 03:10:21;;;;;;;15.52;5.68;;;;;;;;;;4935784;29;20122;-80
2022/08/28 03:12:47;;;;;;;16.35;6.88;;;;;;;;;;4953011;29;20023;-77
2022/08/28 03:15:13;;;;;;;14.82;5.70;;;;;;;;;;4952933;29;20036;-75
2022/08/28 03:17:39;;;;;;;13.80;6.38;;;;;;;;;;4937321;29;20038;-77
2022/08/28 03:20:08;;;;;;;13.95;6.38;;;;;;;;;;4956583;29;20046;-80
2022/08/28 03:25:18;;;;;;;17.52;6.28;;;;;;;;;;4956293;29;20138;-75
2022/08/28 03:27:44;;;;;;;16.80;6.70;;;;;;;;;;4955371;28;20030;-75
2022/08/28 03:30:11;;;;;;;17.58;6.45;;;;;;;;;;4938784;29;20687;-78
2022/08/28 03:32:37;;;;;;;16.33;6.13;;;;;;;;;;4955996;29;20118;-79
2022/08/28 03:35:04;;;;;;;10.27;6.13;;;;;;;;;;4956597;29;20483;-80
2022/08/28 03:37:30;;;;;;;14.55;5.85;;;;;;;;;;4956214;28;20085;-77
2022/08/28 03:39:56;;;;;;;13.00;6.15;;;;;;;;;;4956171;29;20118;-78
2022/08/28 03:42:22;;;;;;;15.07;6.70;;;;;;;;;;4957194;29;20046;-80
2022/08/28 03:44:48;;;;;;;14.98;5.68;;;;;;;;;;4939756;29;20039;-80
2022/08/28 03:47:15;;;;;;;12.40;5.50;;;;;;;;;;4939861;28;20489;-78
2022/08/28 03:49:41;;;;;;;14.43;5.70;;;;;;;;;;4956722;29;20046;-78
2022/08/28 03:52:06;;;;;;;12.82;5.82;;;;;;;;;;4939695;29;20023;-80
2022/08/28 03:54:33;;;;;;;9.95;5.70;;;;;;;;;;4956570;29;20039;-79
2022/08/28 03:56:59;;;;;;;9.23;6.03;;;;;;;;;;4956523;29;20358;-80
2022/08/28 03:59:25;;;;;;;17.40;6.53;;;;;;;;;;4956340;28;20043;-79
2022/08/28 04:01:51;;;;;;;15.95;6.30;;;;;;;;;;4956656;29;20139;-79
2022/08/28 04:04:16;;;;;;;15.20;5.95;;;;;;;;;;4956757;29;20526;-78
2022/08/28 04:06:42;;;;;;;12.52;5.45;;;;;;;;;;4956594;29;20106;-77
2022/08/28 04:09:08;;;;;;;15.73;6.32;;;;;;;;;;4956420;28;20081;-78
2022/08/28 04:11:40;;;;;;;15.73;6.30;;;;;;;;;;4956653;29;20023;-78
2022/08/28 04:14:06;;;;;;;18.25;6.63;;;;;;;;;;4956285;29;20508;-77
2022/08/28 04:16:32;;;;;;;21.15;6.57;;;;;;;;;;4956409;29;20046;-77
2022/08/28 04:18:58;;;;;;;19.15;5.78;;;;;;;;;;4956275;29;20111;-77
2022/08/28 04:21:24;;;;;;;17.55;6.85;;;;;;;;;;4956505;29;20035;-77
2022/08/28 04:23:50;;;;;;;10.80;6.53;;;;;;;;;;4956234;29;20098;-77
2022/08/28 04:26:19;;;;;;;15.00;6.35;;;;;;;;;;4956419;29;20023;-78
2022/08/28 04:28:45;;;;;;;18.30;6.30;;;;;;;;;;4955078;28;20035;-78
2022/08/28 04:31:11;;;;;;;13.75;5.95;;;;;;;;;;4955944;29;20026;-78
2022/08/28 04:33:38;;;;;;;17.83;6.35;;;;;;;;;;4956129;29;20031;-77
2022/08/28 04:36:08;;;;;;;20.35;6.85;;;;;;;;;;4955964;29;20382;-78
2022/08/28 04:38:34;;;;;;;14.65;6.60;;;;;;;;;;4938552;29;20594;-79
2022/08/28 04:41:11;;;;;;;10.05;6.20;;;;;;;;;;4956204;29;20027;-78
2022/08/28 04:43:37;;;;;;;16.58;5.80;;;;;;;;;;4955726;29;20035;-76
2022/08/28 04:46:06;;;;;;;14.27;6.32;;;;;;;;;;4956070;29;20030;-77
2022/08/28 04:48:32;;;;;;;15.38;5.47;;;;;;;;;;4955825;29;20035;-78
2022/08/28 04:50:58;;;;;;;12.75;5.25;;;;;;;;;;4955846;29;20050;-77
2022/08/28 04:53:24;;;;;;;14.45;5.50;;;;;;;;;;4955748;29;20063;-77
2022/08/28 04:55:51;;;;;;;19.23;5.75;;;;;;;;;;4955432;29;20043;-77
2022/08/28 04:58:19;;;;;;;15.35;5.75;;;;;;;;;;4955708;29;20046;-78
2022/08/28 05:00:48;;;;;;;15.45;5.65;;;;;;;;;;4955467;29;20074;-78
2022/08/28 05:03:15;;;;;;;17.33;5.88;;;;;;;;;;4955483;29;20031;-77
2022/08/28 05:05:43;;;;;;;13.95;5.47;;;;;;;;;;4955237;29;20402;-77
2022/08/28 05:08:10;;;;;;;10.32;5.22;;;;;;;;;;4955149;29;20430;-78
2022/08/28 05:10:36;;;;;;;12.73;5.30;;;;;;;;;;4955614;29;20448;-77
2022/08/28 05:13:03;;;;;;;14.18;5.25;;;;;;;;;;4955546;29;20035;-79
2022/08/28 05:15:28;;;;;;;14.52;5.18;;;;;;;;;;4955558;29;20045;-78
2022/08/28 05:17:54;;;;;;;20.73;5.45;;;;;;;;;;4955385;28;20089;-78
2022/08/28 05:20:20;;;;;;;17.48;5.57;;;;;;;;;;4954774;29;20023;-77
2022/08/28 05:22:46;;;;;;;19.92;5.40;;;;;;;;;;4955215;29;20027;-78
2022/08/28 05:25:13;;;;;;;19.10;5.80;;;;;;;;;;4955091;29;20027;-78
2022/08/28 05:27:40;;;;;;;14.65;5.95;;;;;;;;;;4954806;28;20102;-79
2022/08/28 05:30:07;;;;;;;22.02;5.68;;;;;;;;;;4954914;29;20059;-78
2022/08/28 05:32:33;;;;;;;14.88;5.95;;;;;;;;;;4954374;28;20047;-78
2022/08/28 05:34:59;;;;;;;11.35;5.45;;;;;;;;;;4937195;29;20035;-78
2022/08/28 05:37:26;;;;;;;16.20;5.38;;;;;;;;;;4954536;29;20035;-77
2022/08/28 05:39:52;;;;;;;15.43;5.63;;;;;;;;;;4954820;28;20178;-78
2022/08/28 05:42:18;;;;;;;13.63;5.18;;;;;;;;;;4955236;29;20079;-78
2022/08/28 05:44:44;;;;;;;14.55;5.13;;;;;;;;;;4953724;29;20043;-78
2022/08/28 05:47:10;;;;;;;21.75;5.95;;;;;;;;;;4964765;28;20042;-79
2022/08/28 05:49:36;;;;;;;14.38;5.18;;;;;;;;;;4956689;28;20062;-77
2022/08/28 05:52:02;;;;;;;22.15;5.45;;;;;;;;;;4964097;28;20114;-78
2022/08/28 05:54:28;;;;;;;13.82;5.50;;;;;;;;;;4954277;29;20027;-78
2022/08/28 05:56:53;;;;;;;13.38;5.05;;;;;;;;;;4954577;28;20034;-77
2022/08/28 05:59:19;;;;;;;19.75;5.45;;;;;;;;;;4954590;28;20030;-78
2022/08/28 06:01:47;;;;;;;15.48;5.03;;;;;;;;;;4953957;29;20027;-78
2022/08/28 06:04:16;;;;;;;11.20;5.13;;;;;;;;;;4954571;29;20023;-78
2022/08/28 06:06:43;;;;;;;16.38;6.18;;;;;;;;;;4954334;29;20490;-78
2022/08/28 06:09:26;;;;;;;11.20;5.05;;;;;;;;;;4954334;29;20023;-78
2022/08/28 06:11:53;;;;;;;16.38;5.18;;;;;;;;;;4937214;29;20118;-79
2022/08/28 06:14:19;;;;;;;14.80;5.10;;;;;;;;;;4954569;29;20445;-79
2022/08/28 06:16:48;;;;;;;14.13;5.57;;;;;;;;;;4933425;29;20103;-78
2022/08/28 06:19:15;;;;;;;16.55;5.55;;;;;;;;;;4952547;29;20031;-76
2022/08/28 06:21:42;;;;;;;12.02;5.40;;;;;;;;;;4937373;29;20039;-78
2022/08/28 06:24:09;;;;;;;13.57;4.78;;;;;;;;;;4954604;29;20039;-79
2022/08/28 06:26:35;;;;;;;16.75;5.85;;;;;;;;;;4954463;29;20031;-79
2022/08/28 06:29:04;;;;;;;10.38;5.15;;;;;;;;;;4953997;29;20086;-79
2022/08/28 06:31:30;;;;;;;15.77;5.57;;;;;;;;;;4953545;28;20050;-78
2022/08/28 06:33:58;;;;;;;17.17;5.13;;;;;;;;;;4954355;29;20035;-78
2022/08/28 06:36:26;;;;;;;14.35;5.05;;;;;;;;;;4937203;29;20039;-79
2022/08/28 06:38:54;;;;;;;20.08;4.78;;;;;;;;;;4953982;29;20062;-79
2022/08/28 06:41:20;;;;;;;15.13;4.85;;;;;;;;;;4954183;29;20059;-78
2022/08/28 06:43:47;;;;;;;15.18;5.57;;;;;;;;;;4953799;29;20023;-78
2022/08/28 06:46:13;;;;;;;12.13;4.70;;;;;;;;;;4953987;29;20042;-78
2022/08/28 06:48:38;;;;;;;14.38;5.15;;;;;;;;;;4936159;29;20114;-79
2022/08/28 06:51:06;;;;;;;12.98;4.80;;;;;;;;;;4936852;28;20445;-78
2022/08/28 06:53:32;;;;;;;13.32;5.05;;;;;;;;;;4939662;29;20058;-78
2022/08/28 06:56:07;;;;;;;14.43;4.75;;;;;;;;;;4957292;29;20102;-79
2022/08/28 06:58:39;;;;;;;13.82;5.18;;;;;;;;;;4957326;29;20055;-80
2022/08/28 07:01:10;;;;;;;13.55;5.40;;;;;;;;;;4957411;29;20035;-79
2022/08/28 07:03:37;;;;;;;15.27;4.90;;;;;;;;;;4957003;29;20518;-79
2022/08/28 07:06:06;;;;;;;18.48;5.10;;;;;;;;;;4957482;29;20141;-79
2022/08/28 07:08:34;;;;;;;13.98;5.03;;;;;;;;;;4957423;29;20042;-79
2022/08/28 07:11:08;;;;;;;9.68;5.03;;;;;;;;;;4957505;29;20023;-80
2022/08/28 07:13:35;;;;;;;11.10;5.15;;;;;;;;;;4940181;29;20093;-80
2022/08/28 07:16:01;;;;;;;12.38;5.05;;;;;;;;;;4957448;29;20031;-80
2022/08/28 07:18:28;;;;;;;14.40;5.00;;;;;;;;;;4956864;29;20479;-77
2022/08/28 07:20:57;;;;;;;11.75;4.60;;;;;;;;;;4956976;29;20106;-79
2022/08/28 07:23:23;;;;;;;10.23;4.55;;;;;;;;;;4956944;29;20035;-78
2022/08/28 07:25:49;;;;;;;15.63;4.47;;;;;;;;;;4957351;29;20023;-80
2022/08/28 07:28:15;;;;;;;13.95;4.63;;;;;;;;;;4940102;29;20046;-79
2022/08/28 07:30:41;;;;;;;13.10;4.70;;;;;;;;;;4956688;28;20027;-81
2022/08/28 07:33:07;;;;;;;17.17;4.55;;;;;;;;;;4956800;28;20443;-80
2022/08/28 07:35:33;;;;;;;15.00;4.93;;;;;;;;;;4935882;29;20040;-79
2022/08/28 07:37:59;;;;;;;15.15;4.75;;;;;;;;;;4937694;29;20122;-79
2022/08/28 07:40:24;;;;;;;14.98;4.63;;;;;;;;;;4942437;29;20106;-80
2022/08/28 07:45:35;;;;;;;17.83;4.70;;;;;;;;;;4956800;29;20027;-78
2022/08/28 07:48:07;;;;;;;12.25;4.30;;;;;;;;;;4956697;29;20110;-79
2022/08/28 07:50:33;;;;;;;10.68;4.40;;;;;;;;;;4956278;28;20404;-81
2022/08/28 07:53:00;;;;;;;10.52;4.65;;;;;;;;;;4939616;28;20063;-81
2022/08/28 07:55:28;;;;;;;12.32;5.28;;;;;;;;;;4956738;28;20515;-80
2022/08/28 07:57:54;;;;;;;15.43;4.60;;;;;;;;;;4956631;28;20027;-80
2022/08/28 08:00:20;;;;;;;15.35;4.43;;;;;;;;;;4956386;28;20035;-81
2022/08/28 08:02:46;;;;;;;17.33;4.43;;;;;;;;;;4956447;28;20047;-80
2022/08/28 08:05:13;;;;;;;16.77;4.95;;;;;;;;;;4956696;29;20046;-79
2022/08/28 08:07:39;;;;;;;14.38;4.95;;;;;;;;;;4956651;29;20043;-81
2022/08/28 08:10:12;;;;;;;11.05;4.85;;;;;;;;;;4956656;29;20035;-83
2022/08/28 08:12:38;;;;;;;15.52;4.70;;;;;;;;;;4956455;29;20479;-82
2022/08/28 08:15:04;;;;;;;13.32;4.40;;;;;;;;;;4955717;28;20034;-79
2022/08/28 08:17:30;;;;;;;15.93;5.00;;;;;;;;;;4956069;28;20042;-80
2022/08/28 08:19:55;;;;;;;21.92;4.80;;;;;;;;;;4956044;28;20032;-84
2022/08/28 08:22:21;;;;;;;16.83;4.75;;;;;;;;;;4955480;28;20497;-82
2022/08/28 08:24:47;;;;;;;12.65;4.47;;;;;;;;;;4958067;28;20024;-81
2022/08/28 08:27:13;;;;;;;14.70;4.38;;;;;;;;;;4956710;28;20403;-81
2022/08/28 08:36:01;;;;;;;10.88;4.40;;;;;;;;;;4937916;28;20066;-81
2022/08/28 08:38:31;;;;;;;17.63;5.00;;;;;;;;;;4972968;28;20442;-79
2022/08/28 08:41:06;;;;;;;14.82;5.32;;;;;;;;;;4961665;28;20069;-83
2022/08/28 08:43:51;;;;;;;16.45;5.50;;;;;;;;;;4980344;28;20046;-81
2022/08/28 08:46:21;;;;;;;13.75;4.20;;;;;;;;;;4961769;28;20378;-82
2022/08/28 08:48:47;;;;;;;18.27;4.95;;;;;;;;;;4981716;28;20066;-82
2022/08/28 08:51:39;;;;;;;11.07;4.70;;;;;;;;;;4966672;28;20491;-80
2022/08/28 08:54:10;;;;;;;11.85;4.57;;;;;;;;;;4980665;28;20042;-81
2022/08/28 08:56:38;;;;;;;13.30;3.88;;;;;;;;;;4961482;28;20125;-82
2022/08/28 08:59:09;;;;;;;15.18;4.60;;;;;;;;;;4975313;28;20033;-81
2022/08/28 09:01:44;;;;;;;11.77;3.90;;;;;;;;;;4973333;28;20050;-79
2022/08/28 09:04:38;;;;;;;11.70;4.20;;;;;;;;;;4974654;28;20042;-80
2022/08/28 09:07:26;;;;;;;9.07;3.30;;;;;;;;;;4973977;28;20518;-79
2022/08/28 09:09:54;;;;;;;17.17;4.38;;;;;;;;;;4974457;28;20063;-80
2022/08/28 09:12:28;;;;;;;8.07;3.40;;;;;;;;;;4973390;28;20019;-78
2022/08/28 09:15:25;;;;;;;19.50;4.38;;;;;;;;;;4962212;28;20449;-77
2022/08/28 09:18:12;;;;;;;11.73;4.53;;;;;;;;;;4973180;28;20388;-79
2022/08/28 09:20:39;;;;;;;17.83;4.55;;;;;;;;;;4973694;28;20049;-81
2022/08/28 09:23:05;;;;;;;13.02;4.18;;;;;;;;;;4974522;28;20023;-76
2022/08/28 09:25:43;;;;;;;12.52;4.70;;;;;;;;;;4974269;28;20035;-81
2022/08/28 09:28:14;;;;;;;16.48;5.63;;;;;;;;;;4956346;28;20050;-81
2022/08/28 09:30:43;;;;;;;16.88;4.50;;;;;;;;;;4961339;28;20095;-83
2022/08/28 09:33:09;;;;;;;11.48;4.43;;;;;;;;;;4970966;28;20023;-82
2022/08/28 09:35:36;;;;;;;22.15;6.75;;;;;;;;;;4972771;28;20050;-84
2022/08/28 09:38:20;;;;;;;17.00;4.60;;;;;;;;;;4973148;28;20035;-84
2022/08/28 09:43:32;;;;;;;17.52;5.20;;;;;;;;;;4973024;28;20093;-84
2022/08/28 09:46:15;;;;;;;11.82;4.60;;;;;;;;;;4972792;28;20046;-83
2022/08/28 09:48:43;;;;;;;12.48;6.25;;;;;;;;;;4972284;28;20047;-87
2022/08/28 09:51:11;;;;;;;15.82;6.63;;;;;;;;;;4955990;28;20090;-82
2022/08/28 09:53:55;;;;;;;14.20;4.97;;;;;;;;;;4972975;28;20031;-84
2022/08/28 09:56:23;;;;;;;15.05;8.32;;;;;;;;;;4972445;28;20035;-84
2022/08/28 09:58:58;;;;;;;16.38;5.85;;;;;;;;;;4972600;28;20401;-81
2022/08/28 10:01:36;;;;;;;14.57;4.03;;;;;;;;;;4971489;28;20421;-79
2022/08/28 10:04:36;;;;;;;18.58;8.65;;;;;;;;;;4955205;28;20041;-76
2022/08/28 10:07:17;;;;;;;12.07;4.68;;;;;;;;;;4972546;28;20043;-78
2022/08/28 10:10:01;;;;;;;15.85;4.55;;;;;;;;;;4968421;28;20035;-78
2022/08/28 10:12:46;;;;;;;18.35;4.93;;;;;;;;;;4966351;28;20109;-77
2022/08/28 10:15:18;;;;;;;12.23;3.97;;;;;;;;;;4958640;28;20061;-78
2022/08/28 10:18:02;;;;;;;14.52;4.40;;;;;;;;;;4964625;28;20041;-78
2022/08/28 10:21:07;;;;;;;11.15;4.40;;;;;;;;;;4969894;28;20035;-80
2022/08/28 10:23:51;;;;;;;12.05;4.60;;;;;;;;;;4900400;29;20047;-81
2022/08/28 10:26:26;;;;;;;19.42;4.68;;;;;;;;;;4910759;29;20403;-80
2022/08/28 10:29:10;;;;;;;16.85;5.47;;;;;;;;;;4951485;28;20050;-83
2022/08/28 10:31:44;;;;;;;16.27;5.05;;;;;;;;;;4975137;28;20049;-77
2022/08/28 10:34:46;;;;;;;19.73;9.00;;;;;;;;;;4919177;28;1597072;-80
2022/08/28 10:37:50;;;;;;;15.07;7.30;;;;;;;;;;4973460;28;20546;-86
2022/08/28 10:40:20;;;;;;;15.20;5.32;;;;;;;;;;4973591;28;20075;-76
2022/08/28 10:43:11;;;;;;;11.07;4.38;;;;;;;;;;4976359;28;20069;-79
2022/08/28 10:45:38;;;;;;;11.52;4.53;;;;;;;;;;4977071;28;20045;-76
2022/08/28 10:48:22;;;;;;;13.80;5.05;;;;;;;;;;4976127;28;20037;-78
2022/08/28 10:50:56;;;;;;;14.07;4.18;;;;;;;;;;4968313;28;20051;-79
2022/08/28 10:53:42;;;;;;;20.15;8.98;;;;;;;;;;4972390;28;20027;-79
2022/08/28 10:56:21;;;;;;;12.07;7.43;;;;;;;;;;4968075;28;20039;-77
2022/08/28 10:58:50;;;;;;;12.20;6.13;;;;;;;;;;4969833;28;20038;-80
2022/08/28 11:01:26;;;;;;;12.15;4.20;;;;;;;;;;4970477;28;20038;-77
2022/08/28 11:03:52;;;;;;;9.57;4.10;;;;;;;;;;4969930;28;20035;-79
2022/08/28 11:06:35;;;;;;;14.77;4.50;;;;;;;;;;4971022;28;20091;-77
2022/08/28 11:12:18;;;;;;;10.70;3.83;;;;;;;;;;4946893;28;20050;-76
2022/08/28 11:14:48;;;;;;;22.98;12.75;;;;;;;;;;4973253;28;20038;-75
2022/08/28 11:17:40;;;;;;;27.55;16.70;;;;;;;;;;4971189;28;20113;-77
2022/08/28 11:20:14;;;;;;;11.57;3.90;;;;;;;;;;4970533;28;20062;-77
2022/08/28 11:22:58;;;;;;;13.50;3.83;;;;;;;;;;4968780;28;20035;-78
2022/08/28 11:25:31;;;;;;;13.95;4.05;;;;;;;;;;4973960;28;20039;-77
2022/08/28 11:28:21;;;;;;;18.33;4.13;;;;;;;;;;4971901;28;20057;-77
2022/08/28 11:31:08;;;;;;;19.42;6.78;;;;;;;;;;4974659;28;20034;-77
2022/08/28 11:33:42;;;;;;;11.52;4.13;;;;;;;;;;4954742;28;20034;-77
2022/08/28 11:36:28;;;;;;;17.10;4.60;;;;;;;;;;4972221;28;20473;-78
2022/08/28 11:38:54;;;;;;;9.95;3.70;;;;;;;;;;4932647;28;20046;-77
2022/08/28 11:41:29;;;;;;;17.23;3.88;;;;;;;;;;4972271;28;20046;-77
2022/08/28 11:44:11;;;;;;;14.85;4.32;;;;;;;;;;4971763;28;20085;-80
2022/08/28 11:46:49;;;;;;;15.13;3.95;;;;;;;;;;4974104;28;20033;-79
2022/08/28 11:49:30;;;;;;;18.98;5.60;;;;;;;;;;4951117;28;21217;-80
2022/08/28 11:51:57;;;;;;;16.25;4.43;;;;;;;;;;4958556;28;20058;-80
2022/08/28 11:54:38;;;;;;;10.77;4.05;;;;;;;;;;4954213;28;20068;-81
2022/08/28 11:57:13;;;;;;;14.13;4.03;;;;;;;;;;4961934;28;20038;-76
2022/08/28 12:00:03;;;;;;;16.75;4.00;;;;;;;;;;4974152;28;20039;-76
2022/08/28 12:02:39;;;;;;;14.75;4.35;;;;;;;;;;4974250;28;20047;-76
2022/08/28 12:05:13;;;;;;;16.38;3.72;;;;;;;;;;4974716;28;20065;-77
2022/08/28 12:07:47;;;;;;;14.90;3.97;;;;;;;;;;4975416;28;20035;-76
2022/08/28 12:10:19;;;;;;;16.60;4.13;;;;;;;;;;4975296;28;20079;-77
2022/08/28 12:12:45;;;;;;;12.30;4.22;;;;;;;;;;4974963;28;20058;-78
2022/08/28 12:15:32;;;;;;;14.23;3.92;;;;;;;;;;4975205;28;20485;-78
2022/08/28 12:17:58;;;;;;;10.73;3.97;;;;;;;;;;4965579;28;20413;-78
2022/08/28 12:20:49;;;;;;;12.40;3.95;;;;;;;;;;4975109;28;20095;-78
2022/08/28 12:23:39;;;;;;;9.50;3.78;;;;;;;;;;4950912;28;20047;-76
2022/08/28 12:26:24;;;;;;;17.60;4.13;;;;;;;;;;4973996;28;20046;-76
2022/08/28 12:29:17;;;;;;;15.00;4.88;;;;;;;;;;4974009;28;20046;-75
2022/08/28 12:32:18;;;;;;;12.15;5.18;;;;;;;;;;4975201;28;20070;-77
2022/08/28 12:34:48;;;;;;;10.32;4.43;;;;;;;;;;4973878;28;20400;-77
2022/08/28 12:37:40;;;;;;;15.05;3.90;;;;;;;;;;4974221;28;20078;-80
2022/08/28 12:46:29;;;;;;;19.73;5.82;;;;;;;;;;4089460;28;20108;-76
2022/08/28 12:49:01;;;;;;;14.30;4.32;;;;;;;;;;4974143;28;20043;-75
2022/08/28 12:51:31;;;;;;;14.32;3.80;;;;;;;;;;4974131;28;20035;-77
2022/08/28 12:54:00;;;;;;;10.10;4.07;;;;;;;;;;4956707;28;20035;-78
2022/08/28 12:56:28;;;;;;;17.55;4.20;;;;;;;;;;4955367;29;20036;-79
2022/08/28 12:58:55;;;;;;;12.57;4.15;;;;;;;;;;4954676;29;20046;-79
2022/08/28 13:01:31;;;;;;;8.98;4.10;;;;;;;;;;4955363;29;20125;-77
2022/08/28 13:04:01;;;;;;;13.18;3.90;;;;;;;;;;4955042;28;20390;-78
2022/08/28 13:06:33;;;;;;;10.48;4.00;;;;;;;;;;4955025;29;20035;-77
2022/08/28 13:09:15;;;;;;;9.05;3.72;;;;;;;;;;4954932;29;20039;-77
2022/08/28 13:11:47;;;;;;;16.75;4.28;;;;;;;;;;4954551;29;20494;-78
2022/08/28 13:14:32;;;;;;;9.00;3.97;;;;;;;;;;4954874;29;20036;-77
2022/08/28 13:16:59;;;;;;;8.85;3.92;;;;;;;;;;4954848;29;20675;-78
2022/08/28 13:19:27;;;;;;;13.45;4.18;;;;;;;;;;4954800;29;20430;-78
2022/08/28 13:22:00;;;;;;;12.10;4.40;;;;;;;;;;4954878;28;20482;-78
2022/08/28 13:24:35;;;;;;;12.45;4.13;;;;;;;;;;4954425;29;20474;-78
2022/08/28 13:27:18;;;;;;;11.57;3.90;;;;;;;;;;4954883;29;20039;-78
2022/08/28 13:29:55;;;;;;;;;;;;;;;;;;4937860;29;20039;-77
2022/08/28 13:32:22;;;;;;;14.93;3.90;;;;;;;;;;4954668;28;19918;-78
2022/08/28 13:35:27;;;;;;;11.43;4.18;;;;;;;;;;4954659;29;20030;-78
2022/08/28 13:38:07;;;;;;;7.60;3.83;;;;;;;;;;4954130;29;20031;-78
2022/08/28 13:40:42;;;;;;;12.20;3.50;;;;;;;;;;4954625;29;20042;-77
2022/08/28 13:43:10;;;;;;;16.40;4.20;;;;;;;;;;4954494;28;20036;-78
2022/08/28 13:45:37;;;;;;;11.98;3.70;;;;;;;;;;4954370;29;20043;-76
2022/08/28 13:48:04;;;;;;;8.85;3.63;;;;;;;;;;4954321;29;20047;-78
2022/08/28 13:50:31;;;;;;;17.52;3.70;;;;;;;;;;4954200;29;20046;-77
2022/08/28 13:52:57;;;;;;;9.43;3.60;;;;;;;;;;4954347;28;20394;-78
2022/08/28 13:55:23;;;;;;;12.98;3.92;;;;;;;;;;4954222;29;20027;-77
2022/08/28 13:57:48;;;;;;;14.00;4.00;;;;;;;;;;4937353;29;20043;-77
2022/08/28 14:00:15;;;;;;;20.55;9.95;;;;;;;;;;4954392;29;20453;-78
2022/08/28 14:05:26;;;;;;;16.73;7.93;;;;;;;;;;4954336;29;20117;-77
2022/08/28 14:07:54;;;;;;;12.15;3.88;;;;;;;;;;4954184;29;20028;-76
2022/08/28 14:10:20;;;;;;;12.85;3.70;;;;;;;;;;4954208;29;20038;-77
2022/08/28 14:12:47;;;;;;;29.10;16.88;;;;;;;;;;4954154;28;20110;-77
2022/08/28 14:15:15;;;;;;;17.50;7.03;;;;;;;;;;4953837;29;20031;-79
2022/08/28 14:17:41;;;;;;;31.20;15.23;;;;;;;;;;4954194;29;20031;-76
2022/08/28 14:20:07;;;;;;;12.27;4.80;;;;;;;;;;4949339;29;20158;-78
2022/08/28 14:22:34;;;;;;;11.07;3.88;;;;;;;;;;4953023;28;20023;-78
2022/08/28 14:25:02;;;;;;;12.02;4.07;;;;;;;;;;4943730;29;20042;-77
2022/08/28 14:27:28;;;;;;;16.13;3.83;;;;;;;;;;4941553;29;20043;-77
2022/08/28 14:29:54;;;;;;;11.65;4.45;;;;;;;;;;4946057;29;20066;-75
2022/08/28 14:32:20;;;;;;;15.35;4.35;;;;;;;;;;4941508;28;20027;-77
2022/08/28 14:34:46;;;;;;;11.30;3.72;;;;;;;;;;4943642;29;20493;-76
2022/08/28 14:37:13;;;;;;;16.67;4.32;;;;;;;;;;4941698;29;20548;-78
2022/08/28 14:39:39;;;;;;;11.73;4.32;;;;;;;;;;4941906;29;20161;-77
2022/08/28 14:42:05;;;;;;;10.32;3.92;;;;;;;;;;4946406;28;20055;-75
2022/08/28 14:44:31;;;;;;;12.75;4.18;;;;;;;;;;4949867;29;20031;-76
2022/08/28 14:46:57;;;;;;;13.23;4.28;;;;;;;;;;4948885;29;20502;-77
2022/08/28 14:49:25;;;;;;;12.27;4.10;;;;;;;;;;4934081;28;20112;-76
2022/08/28 14:51:52;;;;;;;11.07;4.20;;;;;;;;;;4908037;29;20438;-77
2022/08/28 14:54:21;;;;;;;8.93;4.10;;;;;;;;;;4912216;29;20562;-76
2022/08/28 14:56:48;;;;;;;15.05;4.22;;;;;;;;;;4908208;29;20024;-75
2022/08/28 14:59:19;;;;;;;9.02;3.97;;;;;;;;;;4910561;29;20516;-76
2022/08/28 15:01:46;;;;;;;9.52;3.85;;;;;;;;;;4906661;29;20043;-77
2022/08/28 15:04:15;;;;;;;11.65;4.18;;;;;;;;;;4913951;29;20035;-76
2022/08/28 15:06:42;;;;;;;11.15;3.55;;;;;;;;;;4912446;29;20048;-76
2022/08/28 15:09:10;;;;;;;9.10;4.07;;;;;;;;;;4910987;29;20028;-76
2022/08/28 15:11:36;;;;;;;14.20;4.30;;;;;;;;;;4903306;29;20033;-75
2022/08/28 15:14:02;;;;;;;11.13;4.03;;;;;;;;;;4898807;29;20020;-76
2022/08/28 15:16:37;;;;;;;10.27;3.75;;;;;;;;;;4899922;29;20112;-75
2022/08/28 15:19:05;;;;;;;9.15;3.90;;;;;;;;;;4918068;29;20039;-74
2022/08/28 15:21:37;;;;;;;9.55;3.85;;;;;;;;;;4911274;29;20035;-78
2022/08/28 15:24:05;;;;;;;11.65;3.40;;;;;;;;;;4908661;29;20445;-76